Time;durP1;ratioP1;P1;durP2;ratioP2;P2;SDS_P1;SDS_P2;PMS_P1;PMS_P2;Temp;Humidity;BMP_temperature;BMP_pressure;BME280_temperature;BME280_humidity;BME280_pressure;Samples;Min_cycle;Max_cycle;Signal;HPM_P1;HPM_P2
2023/04/25 00:01:22;;;;;;;10.10;3.63;;;11.60;52.00;;;;;;4999718;28;20076;-45
2023/04/25 00:03:50;;;;;;;13.20;3.45;;;11.60;52.10;;;;;;4998575;28;20517;-44
2023/04/25 00:06:18;;;;;;;10.63;3.45;;;11.50;52.00;;;;;;4999087;28;20046;-45
2023/04/25 00:08:45;;;;;;;8.82;2.67;;;11.50;52.10;;;;;;4996983;28;20057;-43
2023/04/25 00:11:13;;;;;;;8.48;2.83;;;11.60;52.20;;;;;;5000601;28;20058;-44
2023/04/25 00:13:41;;;;;;;6.18;3.42;;;11.50;52.10;;;;;;5000160;28;20055;-44
2023/04/25 00:16:08;;;;;;;5.05;3.05;;;11.50;52.10;;;;;;4999142;28;20050;-45
2023/04/25 00:18:36;;;;;;;8.27;2.88;;;11.60;52.10;;;;;;5001681;28;20050;-46
2023/04/25 00:21:06;;;;;;;14.35;3.42;;;11.60;52.10;;;;;;5000498;28;20068;-46
2023/04/25 00:23:36;;;;;;;11.00;4.35;;;11.60;52.10;;;;;;4995844;28;22150;-43
2023/04/25 00:26:03;;;;;;;13.90;3.75;;;11.60;52.10;;;;;;5000167;28;20053;-44
2023/04/25 00:28:30;;;;;;;6.88;3.10;;;11.50;52.00;;;;;;5001372;28;20068;-44
2023/04/25 00:30:57;;;;;;;9.05;3.38;;;11.50;51.90;;;;;;4998044;28;20054;-44
2023/04/25 00:33:25;;;;;;;8.35;3.35;;;11.50;52.00;;;;;;4998667;28;20057;-44
2023/04/25 00:35:52;;;;;;;11.05;3.58;;;11.50;52.00;;;;;;5001049;28;20050;-43
2023/04/25 00:38:19;;;;;;;13.27;3.85;;;11.40;51.90;;;;;;4997865;28;20061;-45
2023/04/25 00:40:48;;;;;;;10.32;3.50;;;11.40;51.90;;;;;;4995504;28;20060;-44
2023/04/25 00:43:15;;;;;;;9.45;3.78;;;11.40;51.90;;;;;;5001544;28;20068;-43
2023/04/25 00:45:44;;;;;;;11.13;2.90;;;11.40;52.00;;;;;;4999408;28;20604;-43
2023/04/25 00:48:12;;;;;;;14.27;4.00;;;11.40;52.00;;;;;;4995707;28;20062;-46
2023/04/25 00:50:39;;;;;;;11.32;3.50;;;11.40;52.00;;;;;;4998930;28;20054;-44
2023/04/25 00:53:07;;;;;;;10.07;3.13;;;11.30;51.90;;;;;;4998991;28;20068;-44
2023/04/25 00:55:35;;;;;;;6.20;3.13;;;11.30;51.90;;;;;;4998854;28;20050;-46
2023/04/25 00:58:04;;;;;;;8.38;3.58;;;11.30;51.90;;;;;;4999566;28;20053;-44
2023/04/25 01:00:31;;;;;;;10.15;3.88;;;11.30;52.00;;;;;;5023461;23;20057;-45
2023/04/25 01:03:02;;;;;;;12.00;3.63;;;11.30;52.00;;;;;;5019419;28;20057;-45
2023/04/25 02:00:00;;;;;;;12.75;4.20;;;10.60;52.70;;;;;;5020179;28;20044;-46
2023/04/25 02:02:28;;;;;;;14.55;4.32;;;10.50;52.70;;;;;;5017598;28;20070;-47
2023/04/25 02:04:56;;;;;;;12.00;4.00;;;10.50;52.70;;;;;;5018124;28;20382;-48
2023/04/25 02:07:23;;;;;;;9.63;3.40;;;10.40;52.80;;;;;;5013745;28;20045;-46
2023/04/25 02:09:50;;;;;;;12.43;4.28;;;10.40;52.90;;;;;;5015885;28;20496;-45
2023/04/25 02:12:17;;;;;;;15.90;4.25;;;10.40;52.90;;;;;;5016858;28;20050;-45
2023/04/25 02:14:45;;;;;;;8.70;3.83;;;10.40;53.00;;;;;;5013013;28;20053;-46
2023/04/25 02:17:13;;;;;;;19.48;4.65;;;10.40;53.00;;;;;;5015155;28;20046;-44
2023/04/25 02:19:40;;;;;;;8.80;4.05;;;10.30;53.10;;;;;;5017044;28;20053;-45
2023/04/25 02:22:08;;;;;;;10.95;3.85;;;10.30;53.20;;;;;;5017954;28;20049;-46
2023/04/25 02:24:35;;;;;;;10.38;4.25;;;10.30;53.30;;;;;;5017671;28;20064;-44
2023/04/25 02:27:04;;;;;;;22.35;4.93;;;10.30;53.50;;;;;;5015414;28;20049;-44
2023/04/25 02:29:31;;;;;;;18.08;5.32;;;10.20;53.50;;;;;;5018577;28;20179;-44
2023/04/25 02:31:59;;;;;;;14.00;4.63;;;10.20;53.80;;;;;;5017036;28;20053;-45
2023/04/25 02:34:28;;;;;;;19.17;4.97;;;10.20;53.90;;;;;;5020387;28;20421;-48
2023/04/25 02:36:56;;;;;;;18.20;5.65;;;10.20;54.10;;;;;;5021024;28;20053;-45
2023/04/25 02:39:24;;;;;;;18.77;5.47;;;10.10;54.30;;;;;;5023685;28;20484;-44
2023/04/25 02:41:52;;;;;;;18.42;5.75;;;10.00;54.40;;;;;;5025688;28;20076;-48
2023/04/25 02:44:19;;;;;;;19.13;5.47;;;10.00;54.50;;;;;;5024156;28;20072;-44
2023/04/25 02:46:47;;;;;;;18.80;5.38;;;10.00;54.80;;;;;;5025295;28;20041;-45
2023/04/25 02:49:14;;;;;;;17.13;5.18;;;10.00;55.40;;;;;;5025222;28;20057;-45
2023/04/25 02:51:43;;;;;;;15.60;5.80;;;9.90;55.00;;;;;;5025266;28;20053;-45
2023/04/25 02:54:10;;;;;;;30.77;6.38;;;9.90;55.10;;;;;;5024166;28;20077;-45
2023/04/25 02:56:37;;;;;;;20.27;5.45;;;9.90;55.10;;;;;;5019555;28;20053;-45
2023/04/25 02:59:05;;;;;;;19.52;5.50;;;9.90;55.20;;;;;;5024376;28;20060;-46
2023/04/25 03:01:32;;;;;;;20.55;6.18;;;9.80;55.30;;;;;;5021309;28;20531;-50
2023/04/25 03:03:59;;;;;;;13.55;5.35;;;9.90;55.40;;;;;;5023762;28;20064;-48
2023/04/25 03:06:27;;;;;;;23.88;7.00;;;9.80;55.40;;;;;;5024792;28;20045;-46
2023/04/25 03:08:55;;;;;;;20.33;5.20;;;9.80;55.40;;;;;;5025050;28;20469;-48
2023/04/25 03:11:22;;;;;;;18.48;5.60;;;9.80;55.40;;;;;;5012393;28;20042;-45
2023/04/25 03:13:50;;;;;;;18.17;5.60;;;9.90;55.50;;;;;;5022839;28;20057;-45
2023/04/25 03:16:17;;;;;;;17.27;5.38;;;9.80;55.40;;;;;;5023199;28;20060;-44
2023/04/25 03:18:44;;;;;;;14.82;5.25;;;9.80;55.40;;;;;;5024555;28;20064;-44
2023/04/25 03:21:11;;;;;;;24.52;6.03;;;9.80;55.40;;;;;;5018687;28;20072;-45
2023/04/25 03:23:39;;;;;;;16.98;5.35;;;9.80;55.50;;;;;;5021866;28;20057;-44
2023/04/25 03:26:07;;;;;;;23.52;5.93;;;9.90;55.40;;;;;;5021459;28;20461;-48
2023/04/25 03:28:34;;;;;;;17.23;5.03;;;9.90;55.40;;;;;;5022823;28;20050;-45
2023/04/25 03:31:02;;;;;;;14.75;5.00;;;9.90;55.40;;;;;;5020161;28;20056;-46
2023/04/25 03:33:29;;;;;;;15.35;5.20;;;9.90;55.40;;;;;;5024107;28;20064;-44
2023/04/25 03:35:56;;;;;;;16.25;5.13;;;9.90;55.30;;;;;;5023587;28;20049;-46
2023/04/25 03:38:24;;;;;;;17.55;5.32;;;10.00;55.30;;;;;;5020598;28;20052;-44
2023/04/25 03:40:51;;;;;;;16.73;5.55;;;10.00;55.20;;;;;;5017925;28;20058;-45
2023/04/25 03:43:20;;;;;;;13.48;5.10;;;10.00;55.10;;;;;;5022838;28;20049;-45
2023/04/25 03:45:47;;;;;;;23.55;7.00;;;10.00;55.00;;;;;;5020665;28;20064;-45
2023/04/25 03:48:14;;;;;;;13.48;5.38;;;10.00;54.90;;;;;;5023920;28;20049;-44
2023/04/25 03:50:41;;;;;;;13.73;4.70;;;10.10;54.90;;;;;;5022759;28;20065;-44
2023/04/25 03:53:09;;;;;;;16.30;5.40;;;10.00;54.70;;;;;;5020509;28;20508;-47
2023/04/25 03:55:36;;;;;;;14.90;5.93;;;10.10;54.70;;;;;;5019679;28;20054;-46
2023/04/25 03:58:08;;;;;;;14.82;5.40;;;10.10;54.70;;;;;;5023943;28;20500;-44
2023/04/25 04:00:37;;;;;;;17.83;5.30;;;10.10;54.70;;;;;;5021685;28;20053;-44
2023/04/25 04:03:04;;;;;;;16.08;5.65;;;10.10;54.60;;;;;;5023859;28;20064;-47
2023/04/25 04:05:32;;;;;;;17.20;5.00;;;10.10;54.60;;;;;;5023468;28;20538;-44
2023/04/25 04:07:59;;;;;;;12.27;4.57;;;10.10;54.60;;;;;;5024430;28;20037;-44
2023/04/25 04:10:27;;;;;;;16.60;5.20;;;10.00;54.60;;;;;;5022597;28;20072;-46
2023/04/25 04:12:54;;;;;;;17.13;5.03;;;10.10;54.70;;;;;;5023733;28;20049;-48
2023/04/25 04:15:21;;;;;;;21.92;5.22;;;10.10;54.70;;;;;;5022041;28;20054;-43
2023/04/25 04:17:50;;;;;;;14.52;4.95;;;10.00;54.70;;;;;;5015900;28;20045;-44
2023/04/25 04:20:18;;;;;;;14.77;4.25;;;10.00;54.70;;;;;;5018423;28;20527;-46
2023/04/25 04:22:45;;;;;;;15.82;4.68;;;10.10;54.80;;;;;;5018782;28;20072;-46
2023/04/25 04:25:12;;;;;;;15.52;5.72;;;10.10;54.80;;;;;;5020865;28;20064;-48
2023/04/25 04:27:40;;;;;;;16.80;4.90;;;10.10;54.80;;;;;;5020673;28;20064;-43
2023/04/25 04:30:08;;;;;;;16.80;5.05;;;10.10;54.90;;;;;;5019436;28;20050;-47
2023/04/25 04:32:36;;;;;;;17.00;5.63;;;10.10;54.90;;;;;;5021396;28;20065;-46
2023/04/25 04:35:06;;;;;;;18.08;5.35;;;10.10;54.90;;;;;;5018597;28;20057;-44
2023/04/25 04:37:34;;;;;;;14.05;5.20;;;10.10;54.90;;;;;;5014725;28;20136;-44
2023/04/25 04:40:05;;;;;;;14.35;5.88;;;10.10;55.30;;;;;;5018944;28;20064;-45
2023/04/25 04:42:32;;;;;;;17.50;5.70;;;10.10;54.90;;;;;;5021055;28;20057;-45
2023/04/25 04:45:01;;;;;;;16.17;5.90;;;10.10;54.90;;;;;;5021527;28;20057;-45
2023/04/25 04:47:30;;;;;;;17.52;5.65;;;10.10;54.90;;;;;;5020813;28;20124;-46
2023/04/25 04:49:57;;;;;;;13.50;6.00;;;10.20;55.00;;;;;;5021548;28;20492;-44
2023/04/25 04:52:26;;;;;;;15.73;5.47;;;10.20;55.00;;;;;;5023270;28;20064;-45
2023/04/25 04:54:53;;;;;;;17.38;5.60;;;10.20;55.00;;;;;;5021243;28;20053;-46
2023/04/25 04:57:21;;;;;;;16.33;5.80;;;10.20;55.00;;;;;;5019479;28;20049;-45
2023/04/25 04:59:48;;;;;;;14.77;5.22;;;10.20;55.10;;;;;;5019440;28;20483;-46
2023/04/25 05:02:15;;;;;;;16.80;5.55;;;10.10;55.00;;;;;;5020000;28;20064;-45
2023/04/25 05:04:42;;;;;;;21.85;5.90;;;10.20;55.10;;;;;;5022061;28;20053;-45
2023/04/25 05:07:09;;;;;;;11.70;4.50;;;10.20;55.00;;;;;;5016868;28;20049;-48
2023/04/25 05:09:38;;;;;;;14.15;5.45;;;10.20;55.00;;;;;;5019316;28;20061;-47
2023/04/25 05:12:06;;;;;;;21.55;7.38;;;10.20;55.10;;;;;;5019406;28;20519;-48
2023/04/25 05:14:33;;;;;;;15.13;5.68;;;10.20;55.10;;;;;;5020420;28;20053;-44
2023/04/25 05:17:00;;;;;;;17.50;6.40;;;10.20;55.20;;;;;;5018398;28;20053;-44
2023/04/25 05:19:28;;;;;;;16.98;5.60;;;10.20;55.10;;;;;;5018283;28;20076;-45
2023/04/25 05:21:55;;;;;;;17.90;6.10;;;10.20;55.20;;;;;;5021555;28;20420;-48
2023/04/25 05:24:22;;;;;;;21.50;5.72;;;10.20;55.20;;;;;;5022693;28;20061;-43
2023/04/25 05:26:54;;;;;;;19.58;6.22;;;10.20;55.30;;;;;;5019932;28;20385;-47
2023/04/25 05:29:21;;;;;;;23.85;6.70;;;10.20;55.40;;;;;;5020940;28;20489;-47
2023/04/25 05:31:48;;;;;;;20.65;6.57;;;10.20;55.30;;;;;;5020753;28;20118;-44
2023/04/25 05:34:16;;;;;;;18.40;5.90;;;10.20;55.40;;;;;;5022277;28;20065;-44
2023/04/25 05:36:43;;;;;;;22.27;6.93;;;10.20;55.50;;;;;;5020028;28;20061;-44
2023/04/25 05:39:11;;;;;;;15.45;6.00;;;10.20;55.60;;;;;;5021629;28;20060;-44
2023/04/25 05:41:38;;;;;;;22.17;8.02;;;10.20;55.70;;;;;;5021198;28;20057;-44
2023/04/25 05:44:07;;;;;;;20.05;6.82;;;10.10;55.70;;;;;;5022021;28;20440;-47
2023/04/25 05:46:34;;;;;;;16.25;6.47;;;10.20;55.80;;;;;;5018619;28;20163;-46
2023/04/25 05:49:01;;;;;;;19.65;6.45;;;10.20;55.90;;;;;;5020667;28;20058;-44
2023/04/25 05:51:28;;;;;;;21.23;6.75;;;10.20;56.00;;;;;;5020561;28;20062;-46
2023/04/25 05:53:56;;;;;;;25.00;8.18;;;10.20;56.20;;;;;;5021012;28;20057;-45
2023/04/25 05:56:23;;;;;;;21.05;7.32;;;10.20;56.20;;;;;;5021028;28;20053;-46
2023/04/25 05:58:50;;;;;;;18.33;6.50;;;10.20;56.20;;;;;;5021168;28;20528;-49
2023/04/25 06:01:19;;;;;;;25.10;7.80;;;10.20;56.30;;;;;;5017500;28;20484;-46
2023/04/25 06:03:46;;;;;;;26.35;8.43;;;10.20;56.50;;;;;;5019123;28;20053;-46
2023/04/25 06:06:14;;;;;;;29.75;8.52;;;10.30;56.50;;;;;;5021508;28;20053;-45
2023/04/25 06:08:41;;;;;;;20.38;7.43;;;10.30;56.60;;;;;;5021399;28;20057;-45
2023/04/25 06:11:08;;;;;;;21.83;8.30;;;10.20;56.70;;;;;;5020050;28;20056;-46
2023/04/25 06:13:36;;;;;;;21.08;8.10;;;10.30;56.80;;;;;;5019900;28;20054;-46
2023/04/25 06:16:03;;;;;;;18.60;7.78;;;10.30;56.90;;;;;;5019058;28;20068;-45
2023/04/25 06:18:32;;;;;;;23.30;8.68;;;10.30;56.80;;;;;;5019413;28;20619;-45
2023/04/25 06:20:59;;;;;;;23.33;8.00;;;10.20;56.80;;;;;;5020786;28;20053;-50
2023/04/25 06:23:26;;;;;;;23.92;7.63;;;10.30;56.80;;;;;;5019260;28;20053;-47
2023/04/25 06:25:53;;;;;;;24.58;8.27;;;10.30;56.90;;;;;;5021496;28;20064;-46
2023/04/25 06:28:23;;;;;;;21.92;7.35;;;10.20;56.90;;;;;;5013167;28;20057;-44
2023/04/25 06:30:50;;;;;;;30.23;8.88;;;10.30;57.00;;;;;;5017563;28;20049;-47
2023/04/25 06:33:17;;;;;;;28.70;8.45;;;10.30;57.00;;;;;;5021288;28;20528;-49
2023/04/25 06:35:46;;;;;;;18.95;7.07;;;10.30;56.90;;;;;;5021451;28;20516;-44
2023/04/25 06:38:13;;;;;;;28.02;8.35;;;10.30;56.80;;;;;;5012681;28;20057;-45
2023/04/25 06:40:41;;;;;;;30.15;8.10;;;10.30;56.80;;;;;;5020886;28;20068;-46
2023/04/25 06:43:08;;;;;;;28.33;7.88;;;10.30;56.70;;;;;;5019186;28;20068;-47
2023/04/25 06:45:35;;;;;;;18.65;7.28;;;10.30;56.70;;;;;;5014783;28;20058;-46
2023/04/25 06:48:02;;;;;;;25.98;8.75;;;10.30;56.70;;;;;;5021699;28;20068;-45
2023/04/25 06:50:30;;;;;;;19.95;7.03;;;10.20;56.70;;;;;;5018578;28;20520;-47
2023/04/25 06:52:58;;;;;;;22.65;7.72;;;10.30;56.90;;;;;;5018917;28;20061;-49
2023/04/25 06:55:26;;;;;;;23.23;7.13;;;10.30;57.00;;;;;;5019383;28;20064;-49
2023/04/25 06:57:53;;;;;;;26.50;8.32;;;10.30;56.70;;;;;;5016538;28;20453;-45
2023/04/25 07:00:21;;;;;;;35.35;8.07;;;10.30;56.60;;;;;;5013795;28;20394;-46
2023/04/25 07:02:48;;;;;;;30.85;8.25;;;10.30;56.70;;;;;;4999659;28;20077;-54
2023/04/25 07:05:16;;;;;;;26.67;7.57;;;10.20;56.00;;;;;;4999044;28;20054;-47
2023/04/25 07:07:43;;;;;;;24.00;7.55;;;10.20;55.60;;;;;;5000656;28;20077;-47
2023/04/25 07:10:11;;;;;;;29.08;7.25;;;10.20;55.60;;;;;;4999965;28;20053;-46
2023/04/25 07:12:39;;;;;;;29.20;7.40;;;10.20;55.60;;;;;;4998373;28;20057;-47
2023/04/25 07:15:09;;;;;;;23.65;7.05;;;10.20;55.90;;;;;;4993802;28;20498;-51
2023/04/25 07:17:37;;;;;;;35.35;6.95;;;10.20;55.90;;;;;;4999761;28;20058;-47
2023/04/25 07:20:07;;;;;;;30.73;7.72;;;10.20;55.90;;;;;;4999540;28;20065;-47
2023/04/25 07:22:34;;;;;;;25.77;7.20;;;10.20;55.30;;;;;;4997724;28;20374;-48
2023/04/25 07:25:02;;;;;;;24.33;7.05;;;10.30;55.40;;;;;;5001007;28;20060;-50
2023/04/25 07:27:31;;;;;;;25.98;6.22;;;10.20;55.20;;;;;;5002707;28;20421;-52
2023/04/25 07:29:59;;;;;;;27.17;7.20;;;10.30;55.40;;;;;;5001980;28;20401;-48
2023/04/25 07:32:26;;;;;;;38.28;7.18;;;10.30;55.10;;;;;;5002582;28;20058;-47
2023/04/25 07:34:53;;;;;;;27.65;6.18;;;10.30;55.30;;;;;;5002654;28;20062;-50
2023/04/25 07:37:21;;;;;;;38.30;6.93;;;10.40;55.00;;;;;;5002802;28;20061;-47
2023/04/25 07:39:48;;;;;;;23.90;5.50;;;10.40;55.00;;;;;;5003984;28;20057;-50
2023/04/25 07:42:15;;;;;;;31.15;6.07;;;10.40;54.40;;;;;;5005064;28;20050;-46
2023/04/25 07:44:44;;;;;;;16.83;4.53;;;10.50;53.80;;;;;;4998383;28;20520;-45
2023/04/25 07:47:11;;;;;;;19.58;5.32;;;10.50;54.20;;;;;;5003284;28;20073;-50
2023/04/25 07:49:39;;;;;;;21.02;4.55;;;10.60;54.80;;;;;;5000514;28;20054;-46
2023/04/25 07:52:07;;;;;;;15.85;4.72;;;10.60;54.70;;;;;;5002300;28;20061;-47
2023/04/25 07:54:34;;;;;;;17.10;4.28;;;10.70;54.20;;;;;;5000412;28;20062;-46
2023/04/25 07:57:02;;;;;;;29.88;4.57;;;10.80;53.70;;;;;;5000814;28;20073;-47
2023/04/25 07:59:29;;;;;;;16.50;4.20;;;10.80;53.00;;;;;;4999488;28;20050;-47
2023/04/25 08:01:58;;;;;;;15.25;4.30;;;10.80;53.00;;;;;;5011380;28;20064;-48
2023/04/25 08:04:42;;;;;;;30.40;4.45;;;10.90;52.90;;;;;;5023316;28;20503;-54
2023/04/25 08:07:16;;;;;;;19.23;4.28;;;10.90;52.30;;;;;;5022820;28;20053;-46
2023/04/25 08:09:44;;;;;;;13.48;4.03;;;10.90;52.10;;;;;;5022344;28;20053;-49
2023/04/25 08:12:14;;;;;;;28.40;5.63;;;10.90;52.60;;;;;;5019996;28;20064;-51
2023/04/25 08:14:43;;;;;;;24.88;6.28;;;10.90;52.80;;;;;;5018853;28;20060;-47
2023/04/25 08:17:15;;;;;;;20.08;5.15;;;10.90;52.80;;;;;;5022535;28;20049;-47
2023/04/25 08:19:46;;;;;;;24.35;5.22;;;11.00;52.70;;;;;;5022106;28;20056;-48
2023/04/25 08:22:14;;;;;;;16.48;4.32;;;11.00;52.70;;;;;;5021762;28;20477;-46
2023/04/25 08:24:42;;;;;;;15.13;4.05;;;11.00;52.70;;;;;;5020584;28;20061;-44
2023/04/25 08:27:09;;;;;;;18.40;4.15;;;11.00;52.60;;;;;;5020118;28;20053;-46
2023/04/25 08:29:36;;;;;;;18.25;4.05;;;11.00;52.70;;;;;;5020389;28;20488;-45
2023/04/25 08:32:04;;;;;;;14.40;3.70;;;11.10;52.60;;;;;;5022493;28;20056;-46
2023/04/25 08:34:33;;;;;;;22.63;4.63;;;11.10;52.50;;;;;;5017646;28;20053;-46
2023/04/25 08:37:00;;;;;;;17.65;4.10;;;11.10;52.00;;;;;;5021951;28;20058;-47
2023/04/25 08:39:27;;;;;;;15.52;4.18;;;11.10;52.00;;;;;;5023079;28;20057;-46
2023/04/25 08:41:54;;;;;;;13.93;3.50;;;11.20;52.30;;;;;;5020002;28;20057;-45
2023/04/25 08:44:23;;;;;;;18.90;4.53;;;11.20;51.80;;;;;;5023075;28;20412;-47
2023/04/25 08:46:50;;;;;;;16.63;3.35;;;11.20;52.10;;;;;;5022360;28;20515;-46
2023/04/25 08:49:18;;;;;;;20.05;4.20;;;11.20;52.10;;;;;;5022789;28;20056;-47
2023/04/25 08:51:49;;;;;;;18.75;3.78;;;11.20;51.90;;;;;;5020696;28;21089;-46
2023/04/25 08:54:17;;;;;;;10.75;2.75;;;11.20;50.80;;;;;;5022204;28;20054;-49
2023/04/25 08:56:46;;;;;;;17.77;3.85;;;11.10;49.20;;;;;;5018573;28;20416;-47
2023/04/25 08:59:14;;;;;;;19.30;3.30;;;11.10;48.80;;;;;;5020443;28;20409;-48
2023/04/25 09:01:41;;;;;;;10.80;2.45;;;11.00;48.90;;;;;;5018701;28;20065;-47
2023/04/25 09:04:12;;;;;;;18.27;2.28;;;11.00;48.80;;;;;;5022576;28;20053;-51
2023/04/25 09:06:40;;;;;;;14.57;3.00;;;11.10;48.60;;;;;;5019206;28;20057;-44
2023/04/25 09:09:10;;;;;;;13.93;3.10;;;11.10;49.10;;;;;;5020053;28;20485;-51
2023/04/25 09:11:38;;;;;;;12.70;2.30;;;11.10;49.20;;;;;;5019672;28;20050;-48
2023/04/25 09:14:15;;;;;;;15.00;2.72;;;11.20;48.40;;;;;;5019780;28;20525;-46
2023/04/25 09:16:59;;;;;;;12.05;2.80;;;11.20;48.30;;;;;;5020534;28;20053;-50
2023/04/25 09:19:28;;;;;;;14.52;3.22;;;11.20;47.90;;;;;;5018082;28;20046;-50
2023/04/25 09:21:55;;;;;;;13.57;3.00;;;11.30;48.30;;;;;;5020091;28;20057;-51
2023/04/25 09:24:34;;;;;;;14.48;4.05;;;11.30;48.80;;;;;;5018823;28;20054;-46
2023/04/25 09:27:04;;;;;;;14.60;3.78;;;11.30;49.20;;;;;;5018608;28;20057;-50
2023/04/25 09:29:32;;;;;;;16.23;3.70;;;11.40;48.90;;;;;;5021027;28;20054;-53
2023/04/25 09:32:15;;;;;;;20.63;4.05;;;11.40;48.80;;;;;;5021868;28;20045;-46
2023/04/25 09:34:43;;;;;;;17.65;3.90;;;11.30;48.70;;;;;;5018709;28;20080;-46
2023/04/25 09:37:11;;;;;;;21.30;3.78;;;11.40;48.40;;;;;;5020290;28;20053;-50
2023/04/25 09:39:40;;;;;;;14.07;3.38;;;11.30;48.10;;;;;;5018091;28;20045;-52
2023/04/25 09:42:10;;;;;;;14.20;3.55;;;11.30;48.40;;;;;;5019800;28;20049;-46
2023/04/25 09:44:37;;;;;;;11.35;3.08;;;11.20;48.20;;;;;;5020071;28;20063;-49
2023/04/25 09:47:06;;;;;;;12.95;3.17;;;11.20;48.00;;;;;;5022249;28;20056;-47
2023/04/25 09:49:33;;;;;;;11.27;2.70;;;11.20;47.70;;;;;;5020972;28;20383;-48
2023/04/25 09:52:00;;;;;;;14.55;2.90;;;11.20;47.70;;;;;;5021991;28;20072;-47
2023/04/25 09:54:28;;;;;;;16.65;3.00;;;11.10;47.80;;;;;;5021835;28;20060;-47
2023/04/25 09:56:57;;;;;;;16.08;3.03;;;11.10;47.60;;;;;;5028427;28;20389;-50
2023/04/25 09:59:25;;;;;;;13.95;2.58;;;11.10;47.90;;;;;;5015440;28;20077;-46
2023/04/25 10:01:54;;;;;;;12.70;2.80;;;11.10;48.00;;;;;;5018686;28;20073;-46
2023/04/25 10:04:27;;;;;;;13.13;2.65;;;11.10;47.40;;;;;;5016908;28;20053;-48
2023/04/25 10:06:55;;;;;;;10.93;2.55;;;11.10;47.30;;;;;;5017644;28;20537;-53
2023/04/25 10:09:28;;;;;;;25.95;4.43;;;11.10;47.00;;;;;;5015148;28;20056;-49
2023/04/25 10:11:57;;;;;;;13.65;2.88;;;11.00;46.70;;;;;;5021448;28;20057;-46
2023/04/25 10:14:25;;;;;;;9.88;2.50;;;11.00;46.40;;;;;;5021615;28;20057;-49
2023/04/25 10:16:55;;;;;;;12.18;2.67;;;11.00;47.20;;;;;;5020108;28;20058;-45
2023/04/25 10:19:23;;;;;;;13.80;2.88;;;11.00;47.40;;;;;;5012643;28;20045;-52
2023/04/25 10:21:53;;;;;;;14.60;2.60;;;11.00;47.40;;;;;;5020075;28;20049;-46
2023/04/25 10:24:20;;;;;;;11.13;2.83;;;11.00;47.90;;;;;;5020145;28;20056;-49
2023/04/25 10:26:48;;;;;;;22.77;3.33;;;10.90;48.00;;;;;;5017394;28;20045;-52
2023/04/25 10:29:23;;;;;;;20.42;3.10;;;11.00;48.30;;;;;;5021244;28;20394;-45
2023/04/25 10:31:51;;;;;;;11.95;2.83;;;11.00;48.30;;;;;;5016713;28;20046;-47
2023/04/25 10:34:19;;;;;;;14.63;2.95;;;11.00;48.60;;;;;;5018922;28;20527;-47
2023/04/25 10:36:51;;;;;;;19.08;2.60;;;11.00;48.70;;;;;;5014559;28;20053;-51
2023/04/25 10:39:24;;;;;;;20.35;3.58;;;11.10;48.50;;;;;;5019548;28;20053;-47
2023/04/25 10:41:56;;;;;;;9.48;3.00;;;11.10;48.20;;;;;;5017408;28;20168;-48
2023/04/25 10:44:28;;;;;;;16.08;2.67;;;11.10;48.70;;;;;;5016780;28;20493;-48
2023/04/25 10:46:57;;;;;;;13.60;2.80;;;11.20;48.50;;;;;;5014277;28;20441;-51
2023/04/25 10:49:33;;;;;;;15.57;3.45;;;11.20;47.70;;;;;;5015890;28;20400;-48
2023/04/25 10:52:26;;;;;;;13.02;2.85;;;11.30;48.00;;;;;;5011609;28;20057;-49
2023/04/25 10:54:55;;;;;;;12.32;2.75;;;11.40;49.20;;;;;;5016058;28;20441;-46
2023/04/25 10:57:35;;;;;;;13.82;2.80;;;11.40;48.70;;;;;;5012413;28;20060;-48
2023/04/25 11:00:14;;;;;;;12.18;3.10;;;11.50;47.50;;;;;;5015664;28;20068;-45
2023/04/25 11:02:44;;;;;;;15.43;3.45;;;11.50;47.70;;;;;;5025044;28;20066;-46
2023/04/25 11:05:21;;;;;;;15.38;3.15;;;11.60;47.90;;;;;;5023528;28;20057;-45
2023/04/25 11:07:52;;;;;;;9.15;2.47;;;11.60;47.90;;;;;;5023287;28;20077;-45
2023/04/25 11:10:20;;;;;;;10.20;2.63;;;11.70;48.00;;;;;;5022097;28;20509;-49
2023/04/25 11:12:48;;;;;;;16.42;3.25;;;11.70;48.20;;;;;;5023513;28;20064;-45
2023/04/25 11:15:16;;;;;;;8.57;2.50;;;11.70;48.30;;;;;;5022753;28;20053;-45
2023/04/25 11:17:46;;;;;;;11.00;2.58;;;11.70;47.60;;;;;;5024968;28;20513;-48
2023/04/25 11:20:14;;;;;;;11.80;2.63;;;11.70;47.60;;;;;;5023544;28;20053;-46
2023/04/25 11:22:42;;;;;;;7.60;1.90;;;11.70;47.20;;;;;;5023310;28;20062;-46
2023/04/25 11:25:11;;;;;;;15.10;3.10;;;11.70;47.30;;;;;;5023620;28;20428;-45
2023/04/25 11:27:40;;;;;;;13.02;2.70;;;11.70;47.10;;;;;;5024708;28;20057;-51
2023/04/25 11:30:16;;;;;;;10.25;2.63;;;11.70;47.20;;;;;;5019784;28;20540;-48
2023/04/25 11:32:44;;;;;;;22.77;2.70;;;11.70;47.50;;;;;;5024787;28;20064;-51
2023/04/25 11:35:14;;;;;;;12.50;2.47;;;11.70;47.70;;;;;;5023216;28;20069;-46
2023/04/25 11:37:42;;;;;;;16.92;3.30;;;11.80;48.00;;;;;;5022141;28;20423;-48
2023/04/25 11:40:13;;;;;;;18.23;3.08;;;11.80;47.50;;;;;;5023003;28;20510;-46
2023/04/25 11:42:44;;;;;;;12.77;3.05;;;11.80;47.80;;;;;;5024190;28;20429;-48
2023/04/25 11:45:14;;;;;;;13.65;3.15;;;11.80;47.40;;;;;;5019755;28;20053;-47
2023/04/25 11:47:43;;;;;;;16.73;2.63;;;11.90;47.50;;;;;;5024180;28;20069;-46
2023/04/25 11:50:11;;;;;;;11.55;2.40;;;11.90;47.90;;;;;;5023201;28;20076;-46
2023/04/25 11:52:42;;;;;;;10.45;2.60;;;12.00;48.00;;;;;;5017535;28;20060;-46
2023/04/25 11:55:13;;;;;;;15.23;2.90;;;12.00;46.30;;;;;;5017464;28;20493;-49
2023/04/25 11:57:42;;;;;;;19.17;3.03;;;12.00;45.80;;;;;;5022518;28;20076;-49
2023/04/25 12:00:12;;;;;;;12.18;2.58;;;12.10;46.80;;;;;;5022081;28;20057;-49
2023/04/25 12:02:43;;;;;;;9.40;2.80;;;12.20;45.80;;;;;;5023049;28;20061;-47
2023/04/25 12:05:11;;;;;;;16.73;2.85;;;12.20;46.20;;;;;;5023488;28;20061;-45
2023/04/25 12:07:40;;;;;;;6.90;2.00;;;12.20;45.50;;;;;;5020492;28;20061;-46
2023/04/25 12:10:15;;;;;;;11.25;2.60;;;12.20;45.80;;;;;;5022646;28;20053;-47
2023/04/25 12:12:44;;;;;;;10.18;2.60;;;12.20;45.90;;;;;;5022728;28;20373;-46
2023/04/25 12:15:15;;;;;;;11.13;2.97;;;12.20;46.20;;;;;;5021223;28;20069;-52
2023/04/25 12:17:46;;;;;;;10.93;2.30;;;12.20;46.10;;;;;;5019500;28;20057;-47
2023/04/25 12:20:15;;;;;;;12.18;2.17;;;12.20;45.60;;;;;;5023895;28;20057;-48
2023/04/25 12:22:45;;;;;;;12.25;2.30;;;12.20;45.60;;;;;;5021315;28;20053;-49
2023/04/25 12:25:13;;;;;;;9.93;2.28;;;12.20;45.40;;;;;;5019836;28;20045;-49
2023/04/25 12:27:43;;;;;;;8.10;2.00;;;12.30;45.20;;;;;;5023022;28;20049;-46
2023/04/25 12:30:11;;;;;;;11.95;2.30;;;12.20;45.70;;;;;;5020753;28;20515;-46
2023/04/25 12:32:38;;;;;;;10.77;2.78;;;12.30;46.00;;;;;;5019510;28;20598;-51
2023/04/25 12:35:08;;;;;;;10.10;2.10;;;12.20;46.00;;;;;;5022793;28;20053;-46
2023/04/25 12:37:36;;;;;;;13.05;2.25;;;12.30;45.40;;;;;;5018183;28;20061;-54
2023/04/25 12:40:04;;;;;;;8.02;1.70;;;12.20;44.30;;;;;;5021656;28;20068;-48
2023/04/25 12:42:32;;;;;;;8.55;2.10;;;12.20;45.00;;;;;;5022006;28;20053;-49
2023/04/25 12:44:59;;;;;;;14.25;2.63;;;12.20;45.20;;;;;;5019479;28;20079;-49
2023/04/25 12:47:26;;;;;;;9.00;1.75;;;12.30;45.10;;;;;;5023420;28;20053;-45
2023/04/25 12:49:53;;;;;;;7.00;2.10;;;12.20;44.90;;;;;;5019970;28;20573;-48
2023/04/25 12:52:22;;;;;;;11.35;2.95;;;12.20;44.30;;;;;;5021127;28;20058;-46
2023/04/25 12:54:49;;;;;;;8.07;2.00;;;12.30;44.90;;;;;;5022521;28;20072;-45
2023/04/25 12:57:17;;;;;;;11.90;2.22;;;12.30;45.10;;;;;;5020011;28;20053;-48
2023/04/25 12:59:44;;;;;;;7.15;2.10;;;12.30;45.10;;;;;;5017818;28;20493;-48
2023/04/25 13:02:13;;;;;;;8.85;1.80;;;12.40;45.20;;;;;;5019791;28;20065;-50
2023/04/25 13:04:40;;;;;;;9.40;1.80;;;12.40;45.00;;;;;;5020813;28;21167;-47
2023/04/25 13:07:08;;;;;;;9.90;2.92;;;12.40;45.30;;;;;;5022081;28;20049;-45
2023/04/25 13:09:36;;;;;;;8.40;1.77;;;12.50;45.60;;;;;;5020794;28;20600;-45
2023/04/25 13:12:04;;;;;;;7.22;1.70;;;12.60;45.80;;;;;;5022578;28;20504;-46
2023/04/25 13:14:31;;;;;;;7.72;1.92;;;12.60;45.90;;;;;;5019106;28;20414;-48
2023/04/25 13:17:00;;;;;;;10.32;2.38;;;12.70;45.20;;;;;;5016672;28;20073;-46
2023/04/25 13:19:28;;;;;;;8.18;1.85;;;12.80;45.10;;;;;;5020599;28;20052;-50
2023/04/25 13:21:55;;;;;;;16.45;2.60;;;12.90;43.40;;;;;;5018377;28;20053;-51
2023/04/25 13:24:22;;;;;;;5.53;2.00;;;12.90;42.60;;;;;;5018353;28;20050;-44
2023/04/25 13:26:51;;;;;;;9.20;1.92;;;13.00;43.50;;;;;;5022343;28;20057;-46
2023/04/25 13:29:18;;;;;;;10.48;2.40;;;13.10;43.70;;;;;;5019687;28;20061;-47
2023/04/25 13:31:45;;;;;;;8.10;2.00;;;13.20;43.40;;;;;;5021645;28;20053;-48
2023/04/25 13:34:15;;;;;;;6.30;1.75;;;13.20;43.40;;;;;;5022443;28;20049;-47
2023/04/25 13:36:43;;;;;;;5.80;1.88;;;13.30;43.40;;;;;;5021828;28;20493;-50
2023/04/25 13:39:10;;;;;;;7.95;2.03;;;13.30;42.70;;;;;;5022820;28;20084;-49